Time;durP1;ratioP1;P1;durP2;ratioP2;P2;SDS_P1;SDS_P2;PMS_P1;PMS_P2;Temp;Humidity;BMP_temperature;BMP_pressure;BME280_temperature;BME280_humidity;BME280_pressure;Samples;Min_cycle;Max_cycle;Signal;HPM_P1;HPM_P2
2023/04/30 04:02:31;;;;;;;10.85;4.00;;;6.30;99.90;;;;;;5044036;23;20038;-78
2023/04/30 04:04:56;;;;;;;11.25;4.20;;;6.30;99.90;;;;;;4995069;28;20042;-79
2023/04/30 04:07:22;;;;;;;7.43;3.70;;;6.30;99.90;;;;;;4994385;28;20046;-79
2023/04/30 04:09:48;;;;;;;8.93;3.80;;;6.30;99.90;;;;;;4977155;28;20038;-78
2023/04/30 04:12:13;;;;;;;8.52;3.33;;;6.30;99.90;;;;;;4976781;28;20041;-79
2023/04/30 04:14:39;;;;;;;8.85;4.60;;;6.30;99.90;;;;;;4976975;28;20038;-79
2023/04/30 04:17:05;;;;;;;7.63;3.65;;;6.30;99.90;;;;;;4976966;28;20498;-79
2023/04/30 04:19:30;;;;;;;9.85;4.20;;;6.20;99.90;;;;;;4994281;28;20458;-81
2023/04/30 04:21:56;;;;;;;7.95;3.95;;;6.20;99.90;;;;;;4977052;28;20050;-79
2023/04/30 04:24:24;;;;;;;9.02;4.15;;;6.30;99.90;;;;;;4994833;28;20037;-79
2023/04/30 04:26:50;;;;;;;10.85;4.40;;;6.20;99.90;;;;;;4994187;28;20042;-79
2023/04/30 04:29:16;;;;;;;6.43;3.75;;;6.20;99.90;;;;;;4976990;28;20038;-79
2023/04/30 04:31:42;;;;;;;6.93;3.60;;;6.20;99.90;;;;;;4976842;28;20112;-80
2023/04/30 04:34:08;;;;;;;9.50;3.65;;;6.20;99.90;;;;;;4994140;28;20058;-80
2023/04/30 04:36:34;;;;;;;8.23;4.13;;;6.20;99.90;;;;;;4976515;28;20041;-79
2023/04/30 04:39:00;;;;;;;11.43;3.90;;;6.20;99.90;;;;;;4976440;28;20089;-78
2023/04/30 04:41:31;;;;;;;7.45;3.65;;;6.20;99.90;;;;;;4960372;28;20125;-79
2023/04/30 04:43:57;;;;;;;5.07;2.90;;;6.20;99.90;;;;;;4994382;28;20049;-78
2023/04/30 04:46:24;;;;;;;8.63;3.25;;;6.10;99.90;;;;;;4993951;28;20042;-80
2023/04/30 04:48:53;;;;;;;10.60;3.75;;;6.10;99.90;;;;;;4976233;28;20074;-78
2023/04/30 04:51:19;;;;;;;6.43;3.72;;;6.00;99.90;;;;;;4978868;28;20049;-79
2023/04/30 04:53:45;;;;;;;5.88;4.18;;;6.00;99.90;;;;;;4973367;28;20091;-79
2023/04/30 04:56:10;;;;;;;8.00;4.50;;;5.90;99.90;;;;;;4980213;28;20031;-76
2023/04/30 04:58:36;;;;;;;6.93;3.88;;;5.90;99.90;;;;;;4990655;28;20119;-74
2023/04/30 05:01:03;;;;;;;7.70;3.55;;;5.90;99.90;;;;;;4952678;28;20121;-79
2023/04/30 05:03:30;;;;;;;7.80;3.60;;;5.90;99.90;;;;;;4958193;28;20054;-80
2023/04/30 05:05:56;;;;;;;10.25;4.05;;;6.00;99.90;;;;;;4957426;28;20047;-78
2023/04/30 05:08:21;;;;;;;9.00;4.75;;;5.90;99.90;;;;;;4959127;28;20050;-79
2023/04/30 05:10:47;;;;;;;13.10;4.13;;;6.00;99.90;;;;;;4978761;28;20038;-78
2023/04/30 05:13:13;;;;;;;9.23;3.97;;;6.00;99.90;;;;;;4961317;28;20441;-79
2023/04/30 05:15:38;;;;;;;5.85;3.17;;;6.00;99.90;;;;;;4960926;28;20437;-79
2023/04/30 05:18:04;;;;;;;10.02;5.03;;;6.10;99.90;;;;;;4960681;28;20051;-78
2023/04/30 05:20:30;;;;;;;9.52;4.60;;;6.00;99.90;;;;;;4960629;28;20038;-79
2023/04/30 05:22:55;;;;;;;10.00;4.72;;;6.10;99.90;;;;;;4960682;28;20078;-78
2023/04/30 05:25:21;;;;;;;9.73;4.25;;;6.10;99.90;;;;;;4960523;28;20051;-78
2023/04/30 05:27:47;;;;;;;10.85;4.25;;;6.10;99.90;;;;;;4960510;28;20062;-80
2023/04/30 05:30:14;;;;;;;9.55;4.60;;;6.10;99.90;;;;;;4960396;28;20126;-79
2023/04/30 05:32:40;;;;;;;15.75;4.82;;;6.20;99.90;;;;;;4986150;28;20093;-81
2023/04/30 05:35:07;;;;;;;13.55;4.65;;;6.20;99.90;;;;;;4997392;28;20073;-80
2023/04/30 05:37:32;;;;;;;10.75;5.28;;;6.30;99.90;;;;;;4997243;28;20038;-78
2023/04/30 05:39:58;;;;;;;13.05;4.90;;;6.30;99.90;;;;;;4979644;28;20463;-80
2023/04/30 05:42:24;;;;;;;10.02;5.15;;;6.30;99.90;;;;;;4980240;28;20050;-80
2023/04/30 05:44:50;;;;;;;17.65;5.85;;;6.30;99.90;;;;;;4980012;28;20065;-80
2023/04/30 05:47:15;;;;;;;18.02;6.15;;;6.40;99.90;;;;;;4979096;28;20439;-77
2023/04/30 05:49:41;;;;;;;14.27;6.03;;;6.40;99.90;;;;;;4979317;28;20049;-77
2023/04/30 05:52:07;;;;;;;15.27;6.45;;;6.40;99.90;;;;;;4963170;28;20079;-78
2023/04/30 05:54:32;;;;;;;14.52;5.75;;;6.50;99.90;;;;;;4979649;28;20173;-79
2023/04/30 05:56:58;;;;;;;16.73;6.95;;;6.50;99.90;;;;;;4996929;28;20035;-80
2023/04/30 05:59:24;;;;;;;11.52;6.35;;;6.50;99.90;;;;;;4979267;28;20121;-79
2023/04/30 06:01:50;;;;;;;14.60;6.88;;;6.60;99.90;;;;;;4982511;28;20049;-81
2023/04/30 06:04:16;;;;;;;15.38;6.30;;;6.60;99.90;;;;;;4960008;28;20038;-80
2023/04/30 06:06:42;;;;;;;14.77;5.60;;;6.60;99.90;;;;;;4975858;28;20114;-80
2023/04/30 06:09:08;;;;;;;15.82;5.30;;;6.70;99.90;;;;;;4975851;28;20043;-80
2023/04/30 06:11:36;;;;;;;19.70;6.32;;;6.80;99.90;;;;;;4976033;28;20050;-80
2023/04/30 06:14:02;;;;;;;16.77;5.35;;;6.80;99.90;;;;;;4977039;28;20385;-81
2023/04/30 06:16:28;;;;;;;19.13;5.97;;;6.90;99.90;;;;;;4977062;28;20414;-81
2023/04/30 06:18:54;;;;;;;25.35;6.70;;;6.90;99.90;;;;;;4959748;28;20047;-80
2023/04/30 06:21:19;;;;;;;14.75;4.82;;;7.00;99.90;;;;;;4973158;28;20086;-81
2023/04/30 06:23:45;;;;;;;12.80;4.90;;;7.10;99.90;;;;;;4943385;28;20045;-82
2023/04/30 06:26:13;;;;;;;16.30;4.88;;;7.20;99.90;;;;;;4943761;28;20102;-80
2023/04/30 06:28:39;;;;;;;9.93;4.40;;;7.30;99.90;;;;;;4959284;28;20101;-80
2023/04/30 06:31:05;;;;;;;9.50;3.53;;;7.40;99.90;;;;;;4957771;28;20047;-78
2023/04/30 06:33:31;;;;;;;12.80;3.90;;;7.40;99.90;;;;;;4958785;28;20394;-79
2023/04/30 06:35:57;;;;;;;9.65;3.80;;;7.50;99.90;;;;;;4957883;28;20046;-79
2023/04/30 06:38:22;;;;;;;9.23;3.92;;;7.60;99.90;;;;;;4958626;28;20046;-78
2023/04/30 06:40:48;;;;;;;13.68;4.07;;;7.70;99.90;;;;;;4976696;28;20043;-78
2023/04/30 06:43:14;;;;;;;13.85;3.90;;;7.80;99.90;;;;;;4959074;28;20181;-78
2023/04/30 06:45:40;;;;;;;12.13;3.83;;;7.90;99.90;;;;;;4966960;28;20117;-77
2023/04/30 06:48:05;;;;;;;12.57;5.65;;;7.90;99.90;;;;;;4986054;28;20586;-78
2023/04/30 06:50:31;;;;;;;14.65;4.20;;;8.00;99.90;;;;;;4967778;28;20425;-78
2023/04/30 06:52:57;;;;;;;15.23;4.55;;;8.00;99.90;;;;;;4970516;28;20038;-78
2023/04/30 06:55:23;;;;;;;12.45;4.00;;;8.10;99.90;;;;;;4978092;28;20034;-77
2023/04/30 06:57:49;;;;;;;15.50;4.30;;;8.20;99.90;;;;;;4995459;28;20047;-79
2023/04/30 07:00:15;;;;;;;12.13;3.88;;;8.20;99.90;;;;;;4978055;28;20056;-82
2023/04/30 07:02:41;;;;;;;11.52;3.60;;;8.30;99.90;;;;;;4978108;28;20088;-81
2023/04/30 07:05:07;;;;;;;13.63;4.18;;;8.40;99.90;;;;;;4977853;28;20077;-82
2023/04/30 07:07:33;;;;;;;16.00;4.10;;;8.50;99.90;;;;;;4978156;28;20050;-79
2023/04/30 07:09:59;;;;;;;14.23;3.47;;;8.50;99.90;;;;;;4978055;28;20371;-75
2023/04/30 07:12:25;;;;;;;10.25;3.60;;;8.60;99.90;;;;;;4995656;28;20129;-79
2023/04/30 07:14:51;;;;;;;15.27;4.85;;;8.70;99.90;;;;;;4977942;28;20486;-81
2023/04/30 07:17:16;;;;;;;9.18;3.70;;;8.70;99.90;;;;;;4978195;28;20048;-83
2023/04/30 07:19:42;;;;;;;14.75;3.58;;;8.80;99.90;;;;;;4975590;28;20125;-84
2023/04/30 07:22:08;;;;;;;10.55;3.63;;;8.80;99.90;;;;;;4976664;28;20379;-85
2023/04/30 07:24:33;;;;;;;11.50;3.33;;;8.90;99.90;;;;;;4994739;28;20042;-85
2023/04/30 07:27:01;;;;;;;20.75;3.72;;;8.90;99.90;;;;;;4978151;28;20041;-83
2023/04/30 07:29:28;;;;;;;15.75;3.42;;;9.00;99.90;;;;;;4978259;28;20434;-82
2023/04/30 07:31:55;;;;;;;13.18;3.40;;;9.10;99.90;;;;;;4977762;28;20117;-84
2023/04/30 07:34:20;;;;;;;11.23;3.28;;;9.20;99.90;;;;;;4978666;28;20450;-83
2023/04/30 07:36:47;;;;;;;9.13;3.45;;;9.20;99.90;;;;;;4995295;28;20042;-83
2023/04/30 07:39:13;;;;;;;11.02;3.10;;;9.30;99.90;;;;;;4978048;28;20073;-85
2023/04/30 07:41:39;;;;;;;11.10;3.00;;;9.40;99.90;;;;;;4995328;28;20482;-84
2023/04/30 07:44:04;;;;;;;12.88;3.08;;;9.40;99.90;;;;;;4978398;28;20228;-85
2023/04/30 07:46:30;;;;;;;8.50;2.55;;;9.50;99.90;;;;;;4995777;28;20040;-84
2023/04/30 07:48:56;;;;;;;12.93;3.33;;;9.50;99.90;;;;;;4978062;28;20092;-83
2023/04/30 07:51:22;;;;;;;9.65;3.10;;;9.70;99.90;;;;;;4977486;28;20049;-82
2023/04/30 07:53:48;;;;;;;15.55;3.70;;;9.70;99.90;;;;;;4994932;28;20074;-86
2023/04/30 07:56:13;;;;;;;8.15;2.55;;;9.80;99.90;;;;;;4977384;28;20034;-83
2023/04/30 07:58:40;;;;;;;12.15;2.92;;;9.90;99.90;;;;;;4977559;28;20043;-81
2023/04/30 08:01:06;;;;;;;13.40;3.33;;;10.00;99.90;;;;;;4977144;28;20042;-83
2023/04/30 08:03:32;;;;;;;9.18;2.50;;;10.10;99.90;;;;;;4995060;28;20081;-83
2023/04/30 08:05:57;;;;;;;12.60;2.80;;;10.20;99.90;;;;;;4977899;28;20397;-83
2023/04/30 08:08:23;;;;;;;10.45;2.88;;;10.20;99.90;;;;;;4977015;28;20069;-85
2023/04/30 08:10:49;;;;;;;8.05;2.40;;;10.30;99.90;;;;;;4976816;28;20161;-83
2023/04/30 08:13:15;;;;;;;8.23;2.22;;;10.40;99.90;;;;;;4994791;28;20042;-84
2023/04/30 08:15:41;;;;;;;11.80;2.15;;;10.50;99.90;;;;;;4994581;28;20034;-85
2023/04/30 08:18:07;;;;;;;11.85;2.45;;;10.70;99.90;;;;;;4977064;28;20390;-84
2023/04/30 08:20:33;;;;;;;11.98;3.00;;;10.90;99.90;;;;;;4976832;28;20038;-84
2023/04/30 08:22:59;;;;;;;9.80;3.33;;;11.00;99.90;;;;;;4977244;28;20041;-85
2023/04/30 08:25:25;;;;;;;11.38;2.70;;;11.10;99.90;;;;;;4977268;28;20050;-82
2023/04/30 08:27:50;;;;;;;9.40;2.53;;;11.20;99.90;;;;;;4976918;28;20038;-84
2023/04/30 08:30:16;;;;;;;8.40;2.40;;;11.50;99.90;;;;;;4977749;28;20046;-83
2023/04/30 08:32:41;;;;;;;6.60;2.30;;;11.80;99.90;;;;;;4995056;28;20046;-82
2023/04/30 08:35:08;;;;;;;17.65;2.80;;;12.30;99.90;;;;;;4994571;28;20045;-82
2023/04/30 08:37:34;;;;;;;6.60;2.33;;;12.90;99.90;;;;;;4977619;28;20038;-83
2023/04/30 08:39:59;;;;;;;9.80;2.72;;;13.60;99.90;;;;;;4976762;28;20423;-85
2023/04/30 08:42:30;;;;;;;8.30;2.70;;;14.40;99.90;;;;;;4994403;28;20110;-84
2023/04/30 08:44:56;;;;;;;9.88;2.55;;;14.90;99.90;;;;;;4977316;28;20178;-83
2023/04/30 08:47:23;;;;;;;10.75;2.80;;;14.60;99.90;;;;;;4977436;28;20057;-84
2023/04/30 08:49:50;;;;;;;11.75;2.83;;;14.40;99.90;;;;;;4960672;28;20504;-83
2023/04/30 08:52:18;;;;;;;8.00;2.47;;;14.50;99.90;;;;;;4994589;28;20038;-84
2023/04/30 08:54:45;;;;;;;11.15;2.70;;;14.90;99.90;;;;;;4961272;28;20170;-84
2023/04/30 08:57:10;;;;;;;12.75;2.92;;;15.60;99.90;;;;;;4994482;28;20038;-87
2023/04/30 08:59:36;;;;;;;7.65;2.35;;;16.10;99.90;;;;;;4994153;28;20042;-84
2023/04/30 09:02:02;;;;;;;9.38;2.45;;;16.50;99.90;;;;;;4976189;28;20046;-83
2023/04/30 09:04:28;;;;;;;10.48;2.75;;;16.80;99.90;;;;;;4976818;28;20086;-83
2023/04/30 09:06:58;;;;;;;8.82;2.78;;;16.80;99.90;;;;;;4994035;28;20108;-85
2023/04/30 09:09:36;;;;;;;7.88;2.40;;;16.50;99.90;;;;;;4994108;28;20043;-84
2023/04/30 09:12:19;;;;;;;9.07;3.03;;;15.80;99.90;;;;;;4977112;28;20046;-83
2023/04/30 09:15:00;;;;;;;9.32;2.58;;;15.10;99.90;;;;;;4960266;28;20104;-84
2023/04/30 09:17:25;;;;;;;10.27;2.70;;;14.70;99.90;;;;;;4993655;28;20129;-84
2023/04/30 09:19:51;;;;;;;7.25;2.50;;;14.50;99.90;;;;;;4993719;28;20078;-83
2023/04/30 09:22:23;;;;;;;10.00;2.80;;;14.60;99.90;;;;;;4994109;28;20098;-82
2023/04/30 09:24:50;;;;;;;6.82;2.47;;;14.60;99.90;;;;;;4976570;28;20050;-82
2023/04/30 09:27:18;;;;;;;9.05;2.55;;;14.60;99.90;;;;;;4993557;28;20445;-84
2023/04/30 09:29:45;;;;;;;6.10;2.50;;;14.90;99.90;;;;;;4960228;28;20038;-83
2023/04/30 09:32:11;;;;;;;8.13;2.67;;;15.30;99.90;;;;;;4976281;28;20118;-84
2023/04/30 09:34:36;;;;;;;7.93;2.80;;;15.50;99.90;;;;;;4993521;28;20506;-85
2023/04/30 09:37:03;;;;;;;7.32;2.38;;;15.50;99.90;;;;;;4976086;28;20463;-84
2023/04/30 09:39:29;;;;;;;7.63;2.47;;;15.30;99.90;;;;;;4976707;28;20494;-84
2023/04/30 09:42:10;;;;;;;7.32;2.60;;;15.30;99.90;;;;;;4993153;28;20117;-84
2023/04/30 09:44:38;;;;;;;6.13;2.40;;;15.40;99.90;;;;;;4976265;28;20394;-83
2023/04/30 09:47:03;;;;;;;7.93;2.78;;;15.70;99.90;;;;;;4993750;28;20034;-84
2023/04/30 09:49:29;;;;;;;7.03;2.78;;;16.00;99.90;;;;;;4993642;28;20089;-87
2023/04/30 09:51:55;;;;;;;7.63;2.50;;;16.50;99.90;;;;;;4993531;28;20397;-83
2023/04/30 09:54:28;;;;;;;8.30;2.42;;;17.10;99.90;;;;;;4976248;28;20042;-85
2023/04/30 09:56:56;;;;;;;8.65;2.40;;;17.50;99.90;;;;;;4997079;28;20096;-83
2023/04/30 09:59:29;;;;;;;6.53;2.55;;;17.70;99.90;;;;;;4979199;28;20090;-83
2023/04/30 10:01:58;;;;;;;7.32;2.50;;;17.60;99.90;;;;;;4997121;28;20119;-83
2023/04/30 10:04:26;;;;;;;6.70;2.60;;;17.80;99.90;;;;;;4964084;28;20121;-83
2023/04/30 10:06:56;;;;;;;5.75;2.33;;;17.80;99.90;;;;;;4996830;28;20104;-84
2023/04/30 10:09:25;;;;;;;7.30;2.65;;;17.90;99.90;;;;;;4979668;28;20427;-84
2023/04/30 10:11:51;;;;;;;7.22;2.47;;;18.10;99.90;;;;;;4962734;28;20042;-84
2023/04/30 10:14:19;;;;;;;6.65;2.80;;;18.00;99.90;;;;;;4979261;28;20125;-83
2023/04/30 10:16:56;;;;;;;11.95;3.05;;;18.10;99.90;;;;;;4979103;28;20050;-84
2023/04/30 10:19:24;;;;;;;7.55;2.10;;;18.10;99.90;;;;;;4979696;28;20089;-83
2023/04/30 10:21:51;;;;;;;5.60;1.88;;;18.20;99.90;;;;;;4981049;28;20038;-82
2023/04/30 10:24:19;;;;;;;7.55;2.40;;;18.20;99.90;;;;;;5007356;28;20042;-82
2023/04/30 10:26:46;;;;;;;9.77;2.60;;;18.00;99.90;;;;;;4990990;28;20108;-82
2023/04/30 10:29:16;;;;;;;8.73;2.55;;;17.90;99.90;;;;;;4993376;28;20057;-83
2023/04/30 10:31:45;;;;;;;6.38;2.10;;;17.80;99.90;;;;;;5017933;28;20140;-84
2023/04/30 10:34:44;;;;;;;8.23;2.30;;;17.60;99.90;;;;;;5001829;28;20061;-83
2023/04/30 10:37:35;;;;;;;9.50;2.10;;;17.40;99.90;;;;;;4998349;28;20049;-84
2023/04/30 10:40:03;;;;;;;8.57;2.15;;;17.40;99.90;;;;;;4998563;28;20038;-84
2023/04/30 10:42:29;;;;;;;5.57;2.20;;;17.50;99.90;;;;;;4980643;28;20082;-83
2023/04/30 10:44:55;;;;;;;7.18;2.03;;;17.60;99.90;;;;;;4979611;28;20039;-83
2023/04/30 10:47:27;;;;;;;6.28;2.13;;;17.80;99.90;;;;;;4996129;28;20049;-84
2023/04/30 10:50:07;;;;;;;6.45;2.10;;;18.10;99.90;;;;;;4978913;28;20050;-85
2023/04/30 10:52:33;;;;;;;4.50;2.00;;;18.30;99.90;;;;;;4978780;28;20085;-82
2023/04/30 10:55:06;;;;;;;5.45;1.88;;;18.50;99.90;;;;;;4996676;28;20402;-83
2023/04/30 10:57:43;;;;;;;5.57;1.90;;;18.70;99.90;;;;;;4996525;28;20418;-84
2023/04/30 11:00:09;;;;;;;7.18;2.58;;;18.70;99.90;;;;;;4995978;28;20058;-83
2023/04/30 11:02:47;;;;;;;12.43;3.00;;;18.60;99.90;;;;;;4978500;28;20134;-82
2023/04/30 11:05:17;;;;;;;5.90;1.90;;;18.70;99.90;;;;;;4995534;28;20069;-84
2023/04/30 11:07:56;;;;;;;5.78;1.70;;;18.60;99.90;;;;;;4995519;28;20121;-84
2023/04/30 11:10:30;;;;;;;7.93;2.25;;;18.60;99.90;;;;;;4961958;28;20101;-84
2023/04/30 11:12:56;;;;;;;5.75;2.03;;;18.80;99.90;;;;;;4978429;28;20138;-83
2023/04/30 11:15:26;;;;;;;8.18;2.00;;;19.00;99.90;;;;;;4995743;28;20041;-85
2023/04/30 11:17:59;;;;;;;6.65;2.20;;;19.20;99.90;;;;;;4978517;28;20367;-84
2023/04/30 11:20:26;;;;;;;9.18;2.20;;;19.20;99.90;;;;;;4995283;28;20050;-81
2023/04/30 11:23:13;;;;;;;7.53;2.38;;;19.20;99.90;;;;;;4978008;28;20042;-84
2023/04/30 11:25:44;;;;;;;5.60;2.00;;;19.20;99.90;;;;;;4995763;28;20042;-83
2023/04/30 11:28:15;;;;;;;6.57;2.25;;;19.10;99.90;;;;;;4961982;28;20046;-83
2023/04/30 11:30:50;;;;;;;7.13;2.00;;;19.10;99.90;;;;;;4978299;28;20053;-84
2023/04/30 11:33:16;;;;;;;7.40;1.85;;;19.00;99.90;;;;;;4995825;28;20405;-83
2023/04/30 11:35:42;;;;;;;6.85;1.88;;;18.60;99.90;;;;;;4961697;28;20038;-82
2023/04/30 11:38:11;;;;;;;6.28;2.35;;;18.50;99.90;;;;;;4978718;28;20046;-84
2023/04/30 11:40:37;;;;;;;7.43;2.10;;;18.60;99.90;;;;;;4995461;28;20114;-85
2023/04/30 11:43:03;;;;;;;5.35;2.10;;;18.70;99.90;;;;;;4961395;28;20039;-82
2023/04/30 11:45:29;;;;;;;7.35;2.00;;;18.70;99.90;;;;;;4977742;28;20049;-84
2023/04/30 11:47:56;;;;;;;7.25;1.77;;;18.70;99.90;;;;;;4977355;28;20494;-82
2023/04/30 11:50:28;;;;;;;7.07;1.90;;;18.80;99.90;;;;;;4995221;28;20438;-84
2023/04/30 11:52:56;;;;;;;6.00;1.95;;;18.90;99.90;;;;;;4977327;28;20042;-84
2023/04/30 11:55:24;;;;;;;6.60;2.00;;;19.00;99.90;;;;;;4977414;28;20114;-82
2023/04/30 11:57:52;;;;;;;6.03;2.13;;;19.30;99.90;;;;;;4995018;28;20073;-82
2023/04/30 12:00:19;;;;;;;5.15;1.83;;;19.60;99.90;;;;;;4977149;28;20068;-84
2023/04/30 12:02:48;;;;;;;7.93;2.33;;;20.00;99.90;;;;;;4961264;28;20082;-83
2023/04/30 12:05:17;;;;;;;7.25;2.20;;;20.00;99.90;;;;;;4994812;28;20046;-85
2023/04/30 12:07:46;;;;;;;5.20;2.20;;;20.00;99.90;;;;;;4994580;28;20121;-82
2023/04/30 12:10:11;;;;;;;7.13;2.17;;;19.90;99.40;;;;;;4976927;28;20074;-82
2023/04/30 12:12:37;;;;;;;5.97;1.73;;;19.90;99.20;;;;;;4976913;28;20072;-84
2023/04/30 12:15:17;;;;;;;5.95;2.00;;;19.90;99.20;;;;;;4995037;28;20041;-83
2023/04/30 12:17:45;;;;;;;6.80;2.08;;;19.60;98.70;;;;;;4994072;28;20038;-82
2023/04/30 12:20:13;;;;;;;4.10;2.10;;;19.60;99.60;;;;;;4977007;28;20074;-82
2023/04/30 12:22:39;;;;;;;6.93;2.15;;;19.70;99.80;;;;;;4977043;28;20398;-82
2023/04/30 12:25:13;;;;;;;5.15;2.13;;;20.00;99.90;;;;;;4976968;28;20050;-81
2023/04/30 12:27:40;;;;;;;7.70;1.92;;;20.20;99.60;;;;;;4976777;28;20042;-83
2023/04/30 12:30:08;;;;;;;7.43;2.10;;;20.10;98.80;;;;;;4995219;28;20077;-83
2023/04/30 12:32:41;;;;;;;5.35;1.83;;;20.30;99.60;;;;;;4994377;28;20109;-83
2023/04/30 12:35:11;;;;;;;8.93;1.55;;;20.30;99.50;;;;;;4994445;28;20049;-84
2023/04/30 12:37:42;;;;;;;5.68;2.10;;;19.90;99.00;;;;;;4994257;28;20129;-84
2023/04/30 12:40:08;;;;;;;5.45;1.80;;;19.70;98.70;;;;;;4960420;28;20038;-82
2023/04/30 12:42:34;;;;;;;4.53;1.80;;;19.60;98.90;;;;;;4976438;28;20046;-86
2023/04/30 12:45:00;;;;;;;6.82;2.25;;;19.80;98.90;;;;;;4994032;28;20052;-84
2023/04/30 12:47:26;;;;;;;5.78;1.90;;;19.90;98.40;;;;;;4976433;28;20116;-83
2023/04/30 12:49:52;;;;;;;6.38;1.73;;;20.00;98.00;;;;;;4976367;28;20104;-84
2023/04/30 12:52:23;;;;;;;5.45;2.10;;;20.10;97.70;;;;;;4976615;28;20402;-82
2023/04/30 12:54:48;;;;;;;4.93;1.98;;;20.10;97.60;;;;;;4960540;28;20041;-82
2023/04/30 12:57:14;;;;;;;6.30;1.85;;;19.90;97.60;;;;;;4973293;28;20039;-83
2023/04/30 12:59:59;;;;;;;7.50;2.22;;;20.00;97.70;;;;;;4973905;28;20046;-83
2023/04/30 13:02:30;;;;;;;7.78;2.10;;;19.70;96.10;;;;;;4973489;28;20043;-83
2023/04/30 13:04:56;;;;;;;7.47;1.70;;;19.60;97.60;;;;;;4975487;28;20030;-82
2023/04/30 13:07:22;;;;;;;5.40;2.00;;;19.70;97.80;;;;;;4957773;28;20046;-83
2023/04/30 13:09:47;;;;;;;6.90;1.90;;;20.10;97.70;;;;;;4975017;28;20058;-85
2023/04/30 13:12:13;;;;;;;7.25;2.30;;;20.20;97.40;;;;;;4973038;28;20042;-84
2023/04/30 13:14:39;;;;;;;5.97;2.05;;;19.90;97.00;;;;;;4973657;28;20039;-82
2023/04/30 13:17:06;;;;;;;5.53;2.17;;;19.80;97.10;;;;;;4974013;28;20463;-83
2023/04/30 13:19:32;;;;;;;5.45;1.85;;;20.10;97.20;;;;;;4974026;28;20145;-83
2023/04/30 13:21:59;;;;;;;4.85;1.85;;;20.40;97.10;;;;;;4974691;28;20053;-83
2023/04/30 13:24:24;;;;;;;5.22;1.80;;;20.60;96.80;;;;;;4973037;28;20068;-83
2023/04/30 13:26:50;;;;;;;5.47;1.80;;;20.60;96.80;;;;;;4973059;28;20569;-83
2023/04/30 13:29:16;;;;;;;2.55;1.40;;;20.60;97.60;;;;;;4958338;28;20121;-84
2023/04/30 13:31:41;;;;;;;4.68;1.60;;;20.80;97.50;;;;;;4977061;28;20074;-84
2023/04/30 13:34:08;;;;;;;5.07;2.03;;;20.90;96.80;;;;;;4977039;28;20043;-84
2023/04/30 13:36:35;;;;;;;3.75;1.40;;;21.00;96.40;;;;;;4977033;28;20443;-83
2023/04/30 13:39:01;;;;;;;3.45;1.50;;;21.20;96.10;;;;;;4976607;28;20082;-84
2023/04/30 13:41:27;;;;;;;3.75;1.58;;;21.30;95.60;;;;;;4976779;28;20081;-83
2023/04/30 13:43:52;;;;;;;7.35;1.58;;;21.50;95.30;;;;;;4976822;28;20585;-82
2023/04/30 13:46:18;;;;;;;5.07;1.60;;;21.70;95.60;;;;;;4977807;28;20525;-85
2023/04/30 13:48:47;;;;;;;4.80;1.48;;;21.90;95.40;;;;;;4976793;28;20371;-85
2023/04/30 13:51:13;;;;;;;3.03;1.30;;;21.80;95.00;;;;;;4977689;28;20368;-81
2023/04/30 13:53:39;;;;;;;4.00;1.50;;;21.20;94.20;;;;;;4977561;28;20513;-82
2023/04/30 13:56:05;;;;;;;5.05;1.70;;;21.20;94.40;;;;;;4976164;28;20084;-82
2023/04/30 13:58:31;;;;;;;4.47;1.80;;;21.20;94.40;;;;;;4976467;28;20126;-86
2023/04/30 14:00:58;;;;;;;5.32;1.75;;;21.40;94.20;;;;;;4977119;28;20042;-85
2023/04/30 14:03:23;;;;;;;6.30;1.90;;;21.50;93.90;;;;;;4976307;28;20053;-83
2023/04/30 14:05:49;;;;;;;6.65;1.60;;;21.60;93.60;;;;;;4978127;28;20034;-83
2023/04/30 14:08:15;;;;;;;6.18;1.73;;;21.70;93.80;;;;;;4977011;28;20077;-83
2023/04/30 14:10:41;;;;;;;5.20;1.25;;;22.10;94.00;;;;;;4976127;28;20055;-81
2023/04/30 14:13:06;;;;;;;5.45;1.25;;;22.30;93.90;;;;;;4976343;28;20162;-84
2023/04/30 14:15:32;;;;;;;4.70;1.27;;;22.60;93.70;;;;;;4976031;28;20498;-85
2023/04/30 14:18:01;;;;;;;4.95;1.55;;;22.70;93.50;;;;;;4977728;28;20043;-85
2023/04/30 14:20:26;;;;;;;4.20;1.30;;;22.70;93.00;;;;;;4977478;28;20031;-85
2023/04/30 14:22:52;;;;;;;3.03;1.33;;;22.60;92.30;;;;;;4975783;28;20345;-84
2023/04/30 14:25:18;;;;;;;3.10;1.00;;;22.60;92.40;;;;;;4959649;28;20054;-83
2023/04/30 14:27:44;;;;;;;4.03;1.38;;;22.50;92.20;;;;;;4975722;28;20066;-84
2023/04/30 14:30:10;;;;;;;1.65;0.90;;;22.50;92.00;;;;;;4975630;28;20392;-83
2023/04/30 14:32:36;;;;;;;3.03;1.25;;;22.40;91.70;;;;;;4959330;28;20054;-83
2023/04/30 14:35:02;;;;;;;4.13;1.30;;;22.10;91.50;;;;;;4976741;28;20451;-81
2023/04/30 14:37:28;;;;;;;3.30;1.10;;;22.00;90.90;;;;;;4976915;28;20126;-84
2023/04/30 14:39:54;;;;;;;4.82;1.10;;;22.10;91.20;;;;;;4975090;28;20122;-82
2023/04/30 14:42:19;;;;;;;4.07;1.30;;;22.00;91.00;;;;;;4974903;28;20376;-82
2023/04/30 14:44:45;;;;;;;2.88;1.10;;;21.60;90.60;;;;;;4975138;28;20511;-82
2023/04/30 14:47:11;;;;;;;2.22;1.00;;;21.20;91.20;;;;;;4976496;28;20038;-83
2023/04/30 14:49:37;;;;;;;3.35;1.25;;;20.90;91.80;;;;;;4975379;28;20109;-81
2023/04/30 14:52:02;;;;;;;4.10;1.00;;;20.60;92.00;;;;;;4975073;28;20038;-83
2023/04/30 14:54:28;;;;;;;2.00;0.90;;;20.40;92.30;;;;;;4975125;28;20507;-83
2023/04/30 14:56:54;;;;;;;2.70;1.00;;;20.20;92.50;;;;;;4959719;28;20042;-84
2023/04/30 14:59:20;;;;;;;3.40;1.20;;;20.00;92.30;;;;;;4975309;28;20047;-84
2023/04/30 15:01:45;;;;;;;2.50;0.90;;;19.80;92.70;;;;;;4976115;28;20045;-81
2023/04/30 15:04:11;;;;;;;3.63;1.20;;;19.60;93.00;;;;;;4975591;28;20133;-83
2023/04/30 15:06:37;;;;;;;4.18;1.35;;;19.60;93.50;;;;;;4995456;28;20492;-83
2023/04/30 15:09:02;;;;;;;3.72;1.40;;;19.50;93.70;;;;;;4977813;28;20042;-81
2023/04/30 15:11:28;;;;;;;4.10;1.20;;;19.50;94.00;;;;;;4977845;28;20191;-82
2023/04/30 15:13:54;;;;;;;3.97;1.40;;;19.40;94.50;;;;;;4978208;28;20046;-82
2023/04/30 15:16:20;;;;;;;5.30;1.30;;;19.40;94.80;;;;;;4995531;28;20433;-81
2023/04/30 15:18:47;;;;;;;3.97;1.20;;;19.30;94.60;;;;;;4961829;28;20498;-82
2023/04/30 15:21:13;;;;;;;3.60;1.10;;;19.70;94.50;;;;;;4977956;28;20125;-82
2023/04/30 15:23:39;;;;;;;4.53;1.65;;;20.00;94.60;;;;;;4995584;28;20147;-83
2023/04/30 15:26:06;;;;;;;3.25;1.08;;;20.30;94.40;;;;;;4977672;28;20042;-83
2023/04/30 15:28:32;;;;;;;3.58;1.13;;;20.60;94.10;;;;;;4962238;28;20344;-84
2023/04/30 15:30:59;;;;;;;4.40;1.20;;;20.70;93.40;;;;;;4979380;28;20068;-84
2023/04/30 15:33:27;;;;;;;2.45;1.13;;;20.80;92.90;;;;;;4977810;28;20129;-82
2023/04/30 15:35:53;;;;;;;4.85;1.25;;;21.00;92.80;;;;;;4977597;28;20048;-84
2023/04/30 15:38:19;;;;;;;3.78;1.10;;;21.20;92.50;;;;;;4961831;28;20046;-85
2023/04/30 15:40:45;;;;;;;2.85;1.10;;;21.30;92.00;;;;;;4977695;28;20100;-83
2023/04/30 15:43:11;;;;;;;2.65;1.10;;;21.20;91.80;;;;;;4978299;28;20041;-84
2023/04/30 15:45:37;;;;;;;4.28;1.60;;;21.20;91.50;;;;;;4978345;28;20470;-82
2023/04/30 15:48:03;;;;;;;2.70;1.25;;;21.30;91.50;;;;;;4977779;28;20046;-83
2023/04/30 15:50:29;;;;;;;3.15;1.00;;;21.40;91.40;;;;;;4977846;28;20394;-83
2023/04/30 15:52:55;;;;;;;5.97;1.30;;;21.60;91.00;;;;;;4977502;28;20134;-82
2023/04/30 15:55:22;;;;;;;3.20;1.30;;;21.60;91.00;;;;;;4977542;28;20077;-83
2023/04/30 15:57:47;;;;;;;3.50;1.13;;;21.60;90.70;;;;;;4977703;28;20169;-84
2023/04/30 16:00:14;;;;;;;3.13;1.10;;;21.70;90.80;;;;;;4977219;28;20133;-83
2023/04/30 16:02:40;;;;;;;3.72;1.25;;;21.60;90.80;;;;;;4960780;28;20057;-83
2023/04/30 16:05:06;;;;;;;3.97;1.25;;;21.20;90.90;;;;;;4994755;28;20046;-84
2023/04/30 16:07:32;;;;;;;5.03;1.60;;;20.80;91.30;;;;;;4977421;28;20550;-81
2023/04/30 16:10:01;;;;;;;4.30;1.50;;;20.50;91.30;;;;;;4977137;28;20046;-83
2023/04/30 16:12:27;;;;;;;2.75;1.20;;;20.30;91.40;;;;;;4960768;28;20058;-84
2023/04/30 16:14:53;;;;;;;5.10;1.70;;;20.00;91.80;;;;;;4977526;28;20045;-83
2023/04/30 16:17:19;;;;;;;3.50;1.30;;;19.80;92.20;;;;;;4976846;28;20121;-83
2023/04/30 16:19:45;;;;;;;5.28;1.48;;;19.60;92.20;;;;;;4961362;28;20422;-82
2023/04/30 16:22:11;;;;;;;2.85;1.10;;;19.40;92.50;;;;;;4960580;28;20038;-83
2023/04/30 16:24:36;;;;;;;4.78;1.15;;;19.40;92.40;;;;;;4994554;28;20510;-81
2023/04/30 16:27:02;;;;;;;3.50;1.10;;;19.30;92.60;;;;;;4976969;28;20049;-85
2023/04/30 16:29:28;;;;;;;2.63;1.13;;;19.20;92.80;;;;;;4976929;28;20076;-82
2023/04/30 16:31:55;;;;;;;4.95;1.00;;;19.10;92.60;;;;;;4977329;28;20545;-83
2023/04/30 16:34:20;;;;;;;4.38;1.10;;;18.90;92.60;;;;;;4976863;28;20042;-82
2023/04/30 16:36:46;;;;;;;3.05;1.00;;;18.80;92.50;;;;;;4994087;28;20092;-85
2023/04/30 16:39:13;;;;;;;2.83;0.95;;;18.80;92.80;;;;;;4994007;28;20038;-85
2023/04/30 16:41:39;;;;;;;3.85;1.10;;;18.70;92.70;;;;;;4994077;28;20057;-83
2023/04/30 16:44:04;;;;;;;3.78;1.10;;;18.70;92.80;;;;;;4976269;28;20136;-80
2023/04/30 16:46:30;;;;;;;2.97;1.02;;;18.60;92.90;;;;;;4976430;28;20100;-83
2023/04/30 16:48:56;;;;;;;3.20;1.27;;;18.60;93.00;;;;;;4976052;28;20042;-82